Weather at Hradec Králové Airport

Public forecast

Using degrees Celsius for public forecast. Weather courtesy of forecast.io.

Closest aviation weather report (METAR) to Hradec Králové Airport

Closest report is Pardubice Airport, 15.0 nm (27.7 km) SSW. Retrieved 2020/12/02 17:30 UTC (20 minutes ago):

LKPD 021730Z 08006KT CAVOK M02/M04 Q1016 NOSIG RMK BLU BLU

Closest aviation forecast (TAF) to Hradec Králové Airport

Closest forecast is Pardubice Airport, 15.0 nm (27.7 km) SSW. Retrieved 2020/12/02 12:00 UTC (6 hours ago):

TAF LKPD 021100Z 0212/0312 12008KT CAVOK BECMG 0223/0301 BKN025 TEMPO 0302/0312 5000 SN BKN010 OVC018 PROB30 TEMPO 0303/0312 1500 SN BKN004 OVC012